Time;durP1;ratioP1;P1;durP2;ratioP2;P2;SDS_P1;SDS_P2;PMS_P1;PMS_P2;Temp;Humidity;BMP_temperature;BMP_pressure;BME280_temperature;BME280_humidity;BME280_pressure;Samples;Min_cycle;Max_cycle;Signal;HPM_P1;HPM_P2
2022/11/20 00:00:45;;;;;;;25.27;19.17;;;10.30;90.00;;;;;;5050390;28;20020;-74
2022/11/20 00:03:12;;;;;;;24.80;19.13;;;10.30;90.10;;;;;;5049863;28;20111;-74
2022/11/20 00:05:37;;;;;;;22.92;18.45;;;10.30;90.20;;;;;;5034805;28;20073;-74
2022/11/20 00:08:03;;;;;;;24.48;18.67;;;10.30;90.20;;;;;;5049064;28;20041;-73
2022/11/20 00:10:30;;;;;;;25.05;20.33;;;10.30;90.20;;;;;;5049632;28;20041;-73
2022/11/20 00:12:58;;;;;;;25.02;19.80;;;10.20;90.20;;;;;;5051624;28;20031;-74
2022/11/20 00:15:23;;;;;;;24.75;19.17;;;10.30;90.40;;;;;;5052095;28;20025;-74
2022/11/20 00:17:49;;;;;;;24.40;19.50;;;10.30;90.40;;;;;;5052871;28;20029;-74
2022/11/20 00:20:15;;;;;;;25.80;19.40;;;10.20;90.40;;;;;;5052805;28;20055;-74
2022/11/20 00:22:40;;;;;;;28.88;21.63;;;10.30;90.60;;;;;;5053143;28;20079;-74
2022/11/20 00:25:06;;;;;;;28.20;21.20;;;10.20;90.50;;;;;;5052974;28;20079;-74
2022/11/20 00:27:32;;;;;;;30.52;21.52;;;10.20;90.60;;;;;;5052692;28;20017;-74
2022/11/20 00:29:57;;;;;;;29.50;20.33;;;10.10;90.50;;;;;;5053109;28;20090;-74
2022/11/20 00:32:23;;;;;;;28.63;20.92;;;10.20;90.60;;;;;;5051440;28;20390;-73
2022/11/20 00:34:48;;;;;;;25.98;20.60;;;10.20;90.60;;;;;;5052685;28;20029;-74
2022/11/20 00:37:14;;;;;;;27.58;20.48;;;10.20;91.00;;;;;;5052559;28;20021;-74
2022/11/20 00:39:39;;;;;;;27.63;21.27;;;10.20;90.80;;;;;;5052743;28;20319;-74
2022/11/20 00:42:05;;;;;;;25.38;21.27;;;10.20;90.80;;;;;;5052879;28;20021;-74
2022/11/20 00:44:31;;;;;;;28.90;21.10;;;10.10;90.50;;;;;;5052734;28;20021;-74
2022/11/20 00:46:56;;;;;;;28.08;21.02;;;10.10;90.90;;;;;;5052379;28;20061;-74
2022/11/20 00:49:22;;;;;;;27.15;21.88;;;10.10;90.90;;;;;;5051164;28;20049;-74
2022/11/20 00:51:47;;;;;;;31.27;22.08;;;10.10;90.80;;;;;;5052639;28;20057;-74
2022/11/20 00:54:13;;;;;;;32.20;22.80;;;10.20;90.90;;;;;;5052105;28;20389;-74
2022/11/20 00:56:38;;;;;;;32.92;24.33;;;10.20;91.00;;;;;;5052696;28;20048;-74
2022/11/20 00:59:04;;;;;;;33.53;23.52;;;10.20;90.90;;;;;;5052451;28;20516;-74
2022/11/20 01:01:30;;;;;;;34.42;24.52;;;10.10;90.80;;;;;;5054788;28;20390;-74
2022/11/20 01:03:58;;;;;;;38.78;24.38;;;10.10;91.00;;;;;;5055836;28;20040;-73
2022/11/20 01:06:26;;;;;;;31.10;22.70;;;10.10;90.90;;;;;;5056949;28;20025;-74
2022/11/20 01:08:54;;;;;;;31.27;23.65;;;10.10;90.90;;;;;;5056711;28;20040;-74
2022/11/20 01:11:22;;;;;;;33.70;23.25;;;10.10;91.00;;;;;;5056661;28;20059;-74
2022/11/20 01:13:49;;;;;;;34.15;22.92;;;10.10;91.20;;;;;;5056311;28;20040;-74
2022/11/20 01:16:21;;;;;;;28.58;22.55;;;10.10;91.10;;;;;;5056454;28;20104;-74
2022/11/20 01:18:48;;;;;;;;;;;10.10;91.10;;;;;;5056789;28;20068;-75
2022/11/20 01:21:17;;;;;;;34.13;22.13;;;10.20;91.10;;;;;;5056245;28;19926;-75
2022/11/20 01:23:44;;;;;;;32.95;22.52;;;10.10;90.90;;;;;;5056363;28;20466;-74
2022/11/20 01:26:15;;;;;;;38.38;22.60;;;10.10;91.10;;;;;;5056304;28;20021;-73
2022/11/20 01:28:41;;;;;;;33.80;23.50;;;10.10;91.10;;;;;;5055020;28;20473;-74
2022/11/20 01:31:16;;;;;;;27.95;22.27;;;10.10;91.60;;;;;;5055767;28;20157;-74
2022/11/20 01:33:43;;;;;;;32.83;22.25;;;10.00;91.70;;;;;;5055872;28;20021;-75
2022/11/20 01:36:09;;;;;;;30.75;23.27;;;10.00;91.40;;;;;;5056262;28;20025;-73
2022/11/20 01:38:34;;;;;;;27.08;20.70;;;10.10;91.40;;;;;;5056134;28;20035;-73
2022/11/20 01:41:00;;;;;;;31.63;22.52;;;10.10;91.40;;;;;;5055600;28;20021;-72
2022/11/20 01:43:26;;;;;;;30.88;22.92;;;10.10;91.50;;;;;;5056107;28;20470;-73
2022/11/20 01:46:01;;;;;;;29.95;22.00;;;10.10;91.50;;;;;;5055412;28;20374;-73
2022/11/20 01:48:36;;;;;;;33.20;21.67;;;10.00;91.50;;;;;;5056085;28;20025;-73
2022/11/20 01:51:03;;;;;;;31.48;22.50;;;10.00;91.30;;;;;;5055441;28;20477;-73
2022/11/20 01:53:33;;;;;;;28.42;21.80;;;10.00;91.40;;;;;;5055681;28;20482;-73
2022/11/20 01:56:01;;;;;;;27.48;21.27;;;10.00;91.40;;;;;;5055844;28;20070;-73
2022/11/20 01:58:33;;;;;;;29.63;22.63;;;10.00;91.40;;;;;;5055703;28;20108;-74
2022/11/20 02:00:59;;;;;;;33.33;21.55;;;10.00;91.60;;;;;;5055283;28;20032;-73
2022/11/20 02:03:26;;;;;;;30.05;21.48;;;10.00;91.60;;;;;;5055105;28;20071;-73
2022/11/20 02:06:19;;;;;;;32.88;22.83;;;10.00;91.70;;;;;;5055304;28;20037;-73
2022/11/20 02:08:44;;;;;;;26.38;21.73;;;10.00;91.70;;;;;;5055328;28;20025;-73
2022/11/20 02:11:10;;;;;;;28.92;21.95;;;10.00;91.80;;;;;;5054964;28;20547;-73
2022/11/20 02:13:44;;;;;;;29.70;22.08;;;10.10;91.70;;;;;;5053987;28;20036;-73
2022/11/20 02:16:14;;;;;;;28.55;22.17;;;10.00;91.90;;;;;;5055031;28;20466;-73
2022/11/20 02:18:40;;;;;;;29.55;21.20;;;10.00;91.90;;;;;;5054511;28;20535;-73
2022/11/20 02:21:20;;;;;;;33.35;22.80;;;10.00;92.00;;;;;;5055026;28;20013;-73
2022/11/20 02:24:14;;;;;;;31.35;22.08;;;10.00;91.90;;;;;;5055567;28;20033;-73
2022/11/20 02:26:53;;;;;;;30.38;23.55;;;10.00;92.00;;;;;;5055303;28;20025;-72
2022/11/20 02:29:28;;;;;;;28.58;22.92;;;10.00;92.10;;;;;;5054834;28;20033;-75
2022/11/20 02:31:55;;;;;;;32.35;23.45;;;10.00;92.20;;;;;;5055088;28;20036;-74
2022/11/20 02:34:20;;;;;;;29.00;21.80;;;10.00;92.10;;;;;;5055017;28;20071;-75
2022/11/20 02:36:46;;;;;;;31.35;21.40;;;10.00;92.20;;;;;;5054912;28;20025;-75
2022/11/20 02:39:16;;;;;;;31.05;22.40;;;10.00;92.10;;;;;;5053056;28;20036;-75
2022/11/20 02:41:42;;;;;;;28.55;21.45;;;10.00;92.10;;;;;;5053669;28;20174;-75
2022/11/20 02:44:08;;;;;;;33.63;21.88;;;10.00;92.40;;;;;;5054534;28;20435;-75
2022/11/20 02:46:34;;;;;;;29.00;22.00;;;10.00;92.40;;;;;;5053541;28;20048;-74
2022/11/20 02:49:01;;;;;;;29.35;22.48;;;10.00;92.40;;;;;;5054543;28;20028;-75
2022/11/20 02:51:27;;;;;;;31.73;22.23;;;10.00;92.50;;;;;;5053296;28;20032;-75
2022/11/20 02:53:52;;;;;;;29.95;23.60;;;10.00;92.40;;;;;;5054736;28;20029;-74
2022/11/20 02:56:18;;;;;;;35.17;24.00;;;10.00;92.40;;;;;;5054533;28;20025;-75
2022/11/20 02:58:43;;;;;;;37.88;25.60;;;10.00;92.40;;;;;;5053912;28;20029;-75
2022/11/20 03:01:09;;;;;;;34.70;25.95;;;10.00;92.40;;;;;;5054579;28;20478;-75
2022/11/20 03:03:35;;;;;;;37.67;26.80;;;9.90;92.60;;;;;;5054277;28;20442;-75
2022/11/20 03:06:00;;;;;;;34.75;25.80;;;10.00;92.50;;;;;;5054598;28;20037;-75
2022/11/20 03:08:26;;;;;;;34.90;26.13;;;9.90;92.60;;;;;;5054230;28;20037;-75
2022/11/20 03:10:51;;;;;;;37.83;26.02;;;9.90;92.60;;;;;;5054032;28;20457;-75
2022/11/20 03:13:17;;;;;;;41.17;27.52;;;9.90;92.80;;;;;;5054284;28;20094;-75
2022/11/20 03:15:42;;;;;;;37.63;28.27;;;9.90;92.90;;;;;;5054402;28;20424;-75
2022/11/20 03:18:08;;;;;;;37.45;27.67;;;9.90;92.90;;;;;;5054338;28;20060;-74
2022/11/20 03:20:34;;;;;;;38.58;27.25;;;9.90;92.90;;;;;;5054285;28;20033;-75
2022/11/20 03:23:00;;;;;;;41.88;28.80;;;9.90;93.00;;;;;;5054218;28;20021;-74
2022/11/20 03:25:25;;;;;;;38.70;27.65;;;9.90;93.10;;;;;;5053589;28;20025;-75
2022/11/20 03:27:51;;;;;;;37.95;28.10;;;9.90;93.00;;;;;;5053798;28;20028;-75
2022/11/20 03:30:17;;;;;;;41.72;28.00;;;9.90;93.20;;;;;;5054219;28;20459;-75
2022/11/20 03:32:42;;;;;;;44.45;30.02;;;9.90;93.20;;;;;;5052524;28;20029;-74
2022/11/20 03:35:09;;;;;;;39.60;28.67;;;9.80;93.30;;;;;;5053711;28;20037;-74
2022/11/20 03:37:34;;;;;;;45.42;29.35;;;9.80;93.20;;;;;;5053880;28;20028;-75
2022/11/20 03:40:00;;;;;;;40.90;28.40;;;9.80;93.30;;;;;;5053805;28;20378;-75
2022/11/20 03:45:09;;;;;;;46.22;29.10;;;9.80;93.40;;;;;;5053803;28;20459;-75
2022/11/20 03:47:35;;;;;;;46.80;31.90;;;9.80;93.40;;;;;;5053290;28;20056;-75
2022/11/20 03:50:01;;;;;;;44.45;29.58;;;9.70;93.40;;;;;;5054059;28;20036;-73
2022/11/20 03:52:26;;;;;;;44.20;28.67;;;9.70;93.40;;;;;;5053382;28;20111;-74
2022/11/20 03:54:52;;;;;;;44.78;30.48;;;9.70;93.40;;;;;;5053191;28;20047;-74
2022/11/20 03:57:17;;;;;;;42.83;30.02;;;9.70;93.50;;;;;;5052828;28;20037;-75
2022/11/20 03:59:43;;;;;;;40.30;28.58;;;9.70;93.60;;;;;;5053588;28;20028;-75
2022/11/20 04:02:08;;;;;;;39.17;28.50;;;9.70;93.50;;;;;;5053463;28;20021;-74
2022/11/20 04:04:34;;;;;;;42.88;29.15;;;9.60;93.50;;;;;;5052967;28;20040;-73
2022/11/20 04:06:59;;;;;;;41.58;28.92;;;9.70;93.60;;;;;;5053132;28;20033;-75
2022/11/20 04:09:25;;;;;;;42.53;30.30;;;9.70;93.50;;;;;;5053304;28;20057;-74
2022/11/20 04:11:50;;;;;;;45.55;28.85;;;9.60;93.50;;;;;;5051740;28;20032;-74
2022/11/20 04:14:16;;;;;;;42.53;28.88;;;9.60;93.60;;;;;;5050738;28;20029;-74
2022/11/20 04:16:42;;;;;;;40.20;29.13;;;9.60;93.60;;;;;;5041898;28;20021;-74
2022/11/20 04:19:15;;;;;;;40.55;27.02;;;9.60;93.60;;;;;;5045913;28;20126;-74
2022/11/20 04:21:42;;;;;;;43.55;29.00;;;9.60;93.60;;;;;;5053210;28;20052;-74
2022/11/20 04:24:07;;;;;;;39.63;27.85;;;9.60;93.60;;;;;;5052790;28;20031;-75
2022/11/20 04:26:34;;;;;;;39.80;28.95;;;9.60;93.60;;;;;;5052419;28;20029;-74
2022/11/20 04:29:01;;;;;;;40.70;29.17;;;9.50;93.70;;;;;;5052991;28;20029;-72
2022/11/20 04:31:32;;;;;;;38.60;27.80;;;9.50;93.80;;;;;;5053053;28;20070;-74
2022/11/20 04:34:02;;;;;;;34.60;27.25;;;9.50;93.80;;;;;;5052817;28;20382;-75
2022/11/20 04:36:29;;;;;;;40.65;28.25;;;9.50;93.70;;;;;;5052542;28;20067;-75
2022/11/20 04:38:57;;;;;;;44.63;28.92;;;9.50;93.90;;;;;;5051590;28;20425;-76
2022/11/20 04:41:24;;;;;;;38.05;27.83;;;9.50;93.80;;;;;;5052588;28;20032;-76
2022/11/20 04:43:52;;;;;;;41.85;27.35;;;9.50;93.90;;;;;;5052244;28;20123;-75
2022/11/20 04:46:20;;;;;;;42.30;27.50;;;9.50;93.90;;;;;;5052903;28;20028;-76
2022/11/20 04:48:47;;;;;;;37.15;28.45;;;9.50;94.00;;;;;;5052876;28;20040;-75
2022/11/20 04:51:12;;;;;;;37.08;28.00;;;9.50;94.00;;;;;;5052875;28;20025;-75
2022/11/20 04:53:38;;;;;;;42.05;29.75;;;9.50;94.00;;;;;;5052159;28;20544;-77
2022/11/20 04:56:06;;;;;;;43.05;28.65;;;9.50;94.10;;;;;;5052487;28;20033;-77
2022/11/20 04:58:32;;;;;;;41.92;27.83;;;9.50;94.10;;;;;;5052294;28;20040;-74
2022/11/20 05:01:11;;;;;;;36.70;28.00;;;9.50;94.20;;;;;;5052818;28;20089;-76
2022/11/20 05:03:37;;;;;;;38.42;28.50;;;9.50;94.30;;;;;;5052411;28;20033;-76
2022/11/20 05:06:04;;;;;;;42.65;29.25;;;9.50;94.30;;;;;;5052662;28;20406;-76
2022/11/20 05:08:31;;;;;;;38.95;28.45;;;9.50;94.10;;;;;;5052277;28;20028;-76
2022/11/20 05:11:20;;;;;;;40.30;28.27;;;9.50;94.30;;;;;;5052634;28;20484;-76
2022/11/20 05:13:46;;;;;;;37.83;28.33;;;9.50;94.30;;;;;;5044076;28;20041;-75
2022/11/20 05:16:14;;;;;;;37.90;28.58;;;9.50;94.30;;;;;;5052659;28;20029;-75
2022/11/20 05:18:41;;;;;;;36.45;28.20;;;9.50;94.30;;;;;;5051157;28;20512;-75
2022/11/20 05:21:07;;;;;;;41.83;30.05;;;9.50;94.50;;;;;;5051389;28;20509;-75
2022/11/20 05:23:33;;;;;;;37.92;28.90;;;9.50;94.50;;;;;;5051735;28;20035;-76
2022/11/20 05:25:59;;;;;;;44.58;30.30;;;9.50;94.20;;;;;;5052709;28;20083;-73
2022/11/20 05:28:25;;;;;;;41.47;28.30;;;9.50;94.30;;;;;;5052350;28;20029;-75
2022/11/20 05:30:50;;;;;;;41.28;28.30;;;9.50;94.20;;;;;;5052399;28;20422;-74
2022/11/20 05:33:16;;;;;;;40.75;27.40;;;9.50;94.30;;;;;;5052486;28;20036;-72
2022/11/20 05:35:42;;;;;;;38.05;29.30;;;9.50;94.40;;;;;;5052245;28;20108;-73
2022/11/20 05:38:08;;;;;;;40.45;29.83;;;9.50;94.70;;;;;;5051821;28;20071;-73
2022/11/20 05:40:33;;;;;;;40.58;29.73;;;9.50;94.60;;;;;;5052462;28;20087;-73
2022/11/20 05:43:00;;;;;;;37.38;29.48;;;9.50;94.40;;;;;;5052534;28;20028;-73
2022/11/20 05:45:25;;;;;;;41.70;29.70;;;9.50;94.50;;;;;;5052770;28;20390;-74
2022/11/20 05:47:51;;;;;;;37.15;28.42;;;9.50;94.50;;;;;;5054682;28;20028;-75
2022/11/20 05:50:16;;;;;;;39.88;29.60;;;9.50;94.60;;;;;;5055890;28;20527;-73
2022/11/20 05:52:42;;;;;;;40.17;29.45;;;9.50;94.50;;;;;;5055605;28;20067;-74
2022/11/20 05:55:08;;;;;;;42.30;29.33;;;9.50;94.60;;;;;;5055598;28;20048;-74
2022/11/20 05:57:35;;;;;;;38.42;29.63;;;9.50;94.60;;;;;;5055662;28;20024;-75
2022/11/20 06:00:01;;;;;;;39.72;29.23;;;9.50;94.60;;;;;;5055694;28;20383;-74
2022/11/20 06:02:26;;;;;;;37.42;28.08;;;9.50;94.50;;;;;;5042181;28;20033;-76
2022/11/20 06:04:52;;;;;;;41.10;30.05;;;9.50;94.60;;;;;;5055480;28;20045;-75
2022/11/20 06:07:17;;;;;;;39.33;28.88;;;9.50;94.80;;;;;;5052907;28;20527;-75
2022/11/20 06:09:43;;;;;;;38.10;28.35;;;9.50;94.90;;;;;;5055051;28;20235;-75
2022/11/20 06:12:09;;;;;;;39.70;26.48;;;9.50;94.90;;;;;;5055442;28;20032;-74
2022/11/20 06:14:34;;;;;;;35.03;26.42;;;9.50;94.80;;;;;;5055118;28;20025;-74
2022/11/20 06:17:00;;;;;;;38.35;27.52;;;9.50;94.80;;;;;;5055409;28;20036;-75
2022/11/20 06:19:26;;;;;;;38.13;26.63;;;9.50;94.80;;;;;;5055299;28;20045;-73
2022/11/20 06:21:51;;;;;;;38.13;28.17;;;9.60;94.80;;;;;;5054633;28;20108;-77
2022/11/20 06:24:17;;;;;;;34.03;26.23;;;9.60;94.80;;;;;;5055507;28;20025;-75
2022/11/20 06:26:43;;;;;;;39.85;28.27;;;9.60;94.80;;;;;;5055189;28;20009;-75
2022/11/20 06:29:09;;;;;;;37.83;28.27;;;9.60;94.80;;;;;;5055155;28;20025;-75
2022/11/20 06:31:37;;;;;;;37.20;27.30;;;9.60;94.90;;;;;;5054865;28;20028;-76
2022/11/20 06:34:06;;;;;;;37.55;27.45;;;9.60;94.80;;;;;;5055098;28;20037;-76
2022/11/20 06:36:32;;;;;;;40.22;26.98;;;9.60;94.70;;;;;;5054574;28;20363;-76
2022/11/20 06:38:58;;;;;;;36.72;26.85;;;9.60;94.80;;;;;;5054879;28;20025;-76
2022/11/20 06:41:23;;;;;;;39.55;27.83;;;9.60;94.90;;;;;;5054634;28;20036;-76
2022/11/20 06:43:49;;;;;;;38.28;28.20;;;9.60;95.00;;;;;;5054704;28;20021;-76
2022/11/20 06:46:19;;;;;;;39.45;27.52;;;9.60;95.00;;;;;;5054867;28;20024;-75
2022/11/20 06:48:45;;;;;;;39.85;28.42;;;9.60;95.00;;;;;;5054889;28;20378;-76
2022/11/20 06:51:11;;;;;;;37.38;27.35;;;9.60;95.00;;;;;;5054104;28;20171;-76
2022/11/20 06:53:37;;;;;;;37.35;27.80;;;9.60;95.00;;;;;;5054958;28;20473;-76
2022/11/20 06:56:03;;;;;;;39.35;28.65;;;9.60;95.10;;;;;;5054815;28;20053;-77
2022/11/20 06:58:31;;;;;;;42.08;29.38;;;9.60;95.20;;;;;;5053901;28;20113;-75
2022/11/20 07:01:10;;;;;;;41.72;28.25;;;9.60;95.20;;;;;;5053569;28;20027;-76
2022/11/20 07:03:37;;;;;;;42.45;29.73;;;9.60;95.30;;;;;;5054663;28;20171;-75
2022/11/20 07:06:03;;;;;;;40.20;28.63;;;9.60;95.30;;;;;;5054425;28;20060;-76
2022/11/20 07:08:29;;;;;;;46.55;30.33;;;9.60;95.40;;;;;;5054617;28;20021;-76
2022/11/20 07:11:05;;;;;;;41.53;29.40;;;9.60;95.50;;;;;;5054030;28;20032;-75
2022/11/20 07:13:31;;;;;;;47.70;30.42;;;9.60;95.50;;;;;;5054514;28;20490;-75
2022/11/20 07:16:02;;;;;;;43.40;29.05;;;9.60;95.50;;;;;;5054062;28;20101;-76
2022/11/20 07:18:28;;;;;;;48.90;31.08;;;9.60;95.70;;;;;;5054421;28;20040;-77
2022/11/20 07:20:53;;;;;;;49.58;30.42;;;9.60;95.70;;;;;;5053597;28;20386;-75
2022/11/20 07:23:19;;;;;;;48.35;31.23;;;9.60;95.70;;;;;;5053182;28;20060;-75
2022/11/20 07:25:44;;;;;;;49.92;32.38;;;9.70;95.90;;;;;;5054139;28;20534;-74
2022/11/20 07:28:10;;;;;;;54.78;32.85;;;9.70;95.90;;;;;;5054013;28;20021;-75
2022/11/20 07:30:36;;;;;;;54.53;32.72;;;9.70;95.90;;;;;;5053756;28;20489;-75
2022/11/20 07:33:02;;;;;;;52.83;33.28;;;9.70;96.00;;;;;;5052587;28;20108;-75
2022/11/20 07:35:27;;;;;;;54.45;32.33;;;9.70;96.00;;;;;;5053859;28;20100;-76
2022/11/20 07:37:53;;;;;;;57.97;34.30;;;9.70;96.00;;;;;;5053477;28;20032;-76
2022/11/20 07:40:20;;;;;;;52.80;33.40;;;9.70;96.10;;;;;;5053927;28;20119;-74
2022/11/20 07:42:53;;;;;;;54.00;33.78;;;9.70;96.20;;;;;;5052095;28;20382;-76
2022/11/20 07:45:20;;;;;;;57.72;33.50;;;9.70;96.30;;;;;;5052535;28;20367;-76
2022/11/20 07:47:45;;;;;;;56.08;33.38;;;9.70;96.20;;;;;;5049804;28;20025;-70
2022/11/20 07:50:11;;;;;;;44.40;28.02;;;9.70;96.30;;;;;;5051454;28;20040;-70
2022/11/20 07:52:37;;;;;;;47.97;28.65;;;10.40;95.60;;;;;;5041960;28;20026;-70
2022/11/20 07:55:03;;;;;;;49.53;30.92;;;10.90;94.90;;;;;;5043742;28;20126;-70
2022/11/20 07:57:28;;;;;;;50.05;31.73;;;11.10;94.30;;;;;;5039628;28;20033;-70
2022/11/20 07:59:54;;;;;;;51.78;31.55;;;11.20;93.90;;;;;;5051709;28;20041;-70
2022/11/20 08:02:19;;;;;;;48.40;29.05;;;11.30;93.80;;;;;;5046881;28;20017;-70
2022/11/20 08:04:45;;;;;;;45.65;27.75;;;11.30;94.20;;;;;;5046818;28;20482;-70
2022/11/20 08:07:10;;;;;;;48.20;30.40;;;11.40;94.10;;;;;;5047012;28;20040;-70
2022/11/20 08:09:36;;;;;;;46.53;28.20;;;11.50;93.80;;;;;;5050476;28;20028;-70
2022/11/20 08:14:45;;;;;;;53.58;32.15;;;11.50;93.80;;;;;;5047163;28;20551;-71
2022/11/20 08:17:12;;;;;;;50.80;31.50;;;11.50;93.70;;;;;;5037460;28;20025;-71
2022/11/20 08:19:37;;;;;;;51.35;29.45;;;11.40;93.50;;;;;;5032905;28;20025;-71
2022/11/20 08:22:03;;;;;;;55.45;31.40;;;11.50;93.60;;;;;;5031595;28;20355;-70
2022/11/20 08:24:28;;;;;;;46.83;30.05;;;11.60;93.50;;;;;;5042634;28;20029;-70
2022/11/20 08:26:56;;;;;;;48.45;30.00;;;11.50;93.60;;;;;;5050786;28;20031;-71
2022/11/20 08:29:22;;;;;;;51.40;31.40;;;11.50;93.60;;;;;;5036865;28;20025;-71
2022/11/20 08:31:48;;;;;;;58.13;33.70;;;11.60;93.50;;;;;;5033972;28;20025;-71
2022/11/20 08:34:13;;;;;;;49.90;30.35;;;11.60;93.30;;;;;;5032809;28;20025;-71
2022/11/20 08:36:39;;;;;;;45.47;27.75;;;11.50;93.50;;;;;;5045069;28;20059;-71
2022/11/20 08:39:04;;;;;;;48.60;30.17;;;11.50;93.80;;;;;;5038287;28;20056;-71
2022/11/20 08:41:32;;;;;;;45.63;28.50;;;11.50;93.80;;;;;;5033760;28;20532;-71
2022/11/20 08:44:03;;;;;;;54.17;32.40;;;11.50;94.20;;;;;;5034057;28;20040;-71
2022/11/20 08:46:33;;;;;;;53.60;31.70;;;11.60;94.00;;;;;;5032293;28;20017;-71
2022/11/20 08:48:59;;;;;;;54.53;31.55;;;11.50;94.00;;;;;;5039835;28;20375;-71
2022/11/20 08:51:25;;;;;;;43.83;27.48;;;11.50;94.10;;;;;;5049392;28;20481;-72
2022/11/20 08:53:50;;;;;;;52.38;30.00;;;11.70;94.00;;;;;;5057620;28;20173;-71
2022/11/20 08:56:17;;;;;;;52.40;30.50;;;11.70;94.00;;;;;;5048572;28;20029;-70
2022/11/20 08:58:43;;;;;;;57.15;33.35;;;11.70;94.00;;;;;;5049684;28;20439;-70
2022/11/20 09:01:09;;;;;;;49.95;30.48;;;11.60;94.10;;;;;;5049264;28;20478;-70
2022/11/20 09:03:34;;;;;;;49.03;30.60;;;11.60;94.10;;;;;;5044996;28;20112;-71
2022/11/20 09:06:03;;;;;;;47.85;30.88;;;11.60;94.20;;;;;;5059379;28;20493;-71
2022/11/20 09:08:29;;;;;;;54.80;32.25;;;11.60;94.10;;;;;;5051693;28;20021;-69
2022/11/20 09:10:55;;;;;;;56.75;33.47;;;11.80;93.80;;;;;;5052302;28;20489;-69
2022/11/20 09:13:22;;;;;;;52.05;31.63;;;11.50;94.20;;;;;;5046317;28;20028;-70
2022/11/20 09:15:57;;;;;;;52.97;32.25;;;11.40;94.20;;;;;;5046726;28;20033;-70
2022/11/20 09:18:24;;;;;;;55.40;33.00;;;11.50;94.10;;;;;;5050095;28;20068;-70
2022/11/20 09:20:49;;;;;;;55.13;31.02;;;11.40;94.30;;;;;;5043650;28;20025;-71
2022/11/20 09:23:16;;;;;;;53.40;31.48;;;11.60;94.10;;;;;;5047263;28;20094;-70
2022/11/20 09:25:42;;;;;;;49.70;29.85;;;11.50;94.30;;;;;;5047890;28;20036;-70
2022/11/20 09:28:07;;;;;;;51.60;32.35;;;11.80;94.10;;;;;;5046829;28;20078;-69
2022/11/20 09:30:33;;;;;;;54.85;32.25;;;11.80;94.10;;;;;;5048238;28;20021;-70
2022/11/20 09:32:59;;;;;;;54.28;32.22;;;11.50;94.40;;;;;;5047028;28;20017;-70
2022/11/20 09:35:24;;;;;;;54.97;31.27;;;11.40;94.70;;;;;;5051849;28;20037;-70
2022/11/20 09:37:50;;;;;;;54.17;31.52;;;11.20;95.20;;;;;;5049756;28;20088;-70
2022/11/20 09:40:40;;;;;;;57.75;33.53;;;11.30;95.20;;;;;;5039438;28;20144;-70
2022/11/20 09:43:21;;;;;;;54.05;30.90;;;11.30;95.40;;;;;;5047916;28;20029;-69
2022/11/20 09:46:15;;;;;;;52.72;30.70;;;11.50;95.10;;;;;;5046891;28;20025;-70
2022/11/20 09:48:45;;;;;;;52.17;30.13;;;11.50;95.20;;;;;;5039371;28;20059;-70
2022/11/20 09:51:27;;;;;;;59.83;30.52;;;11.70;95.00;;;;;;5043366;28;20112;-70
2022/11/20 09:54:04;;;;;;;50.50;30.03;;;11.90;94.90;;;;;;5051118;28;20029;-70
2022/11/20 09:56:30;;;;;;;49.40;28.52;;;11.90;94.80;;;;;;5048334;28;20031;-70
2022/11/20 09:59:01;;;;;;;50.83;29.08;;;12.00;94.80;;;;;;5047313;28;20021;-70
2022/11/20 10:01:32;;;;;;;54.07;30.03;;;12.00;94.90;;;;;;5045539;28;20548;-68
2022/11/20 10:04:15;;;;;;;53.67;31.77;;;12.00;95.00;;;;;;5047010;28;20037;-69
2022/11/20 10:06:50;;;;;;;50.95;30.35;;;11.70;95.40;;;;;;5050684;28;20032;-70
2022/11/20 10:09:30;;;;;;;53.83;29.05;;;11.60;95.70;;;;;;5045599;28;20572;-68
2022/11/20 10:12:17;;;;;;;45.17;24.60;;;11.80;95.70;;;;;;5047936;28;20028;-69
2022/11/20 10:15:07;;;;;;;49.03;26.02;;;12.00;95.70;;;;;;5052116;28;20040;-68
2022/11/20 10:17:58;;;;;;;52.03;29.40;;;12.20;95.70;;;;;;5046349;28;20033;-68
2022/11/20 10:20:43;;;;;;;51.38;28.40;;;12.00;95.60;;;;;;5048980;28;20037;-68
2022/11/20 10:23:26;;;;;;;46.55;28.35;;;11.90;95.90;;;;;;5047370;28;20025;-69
2022/11/20 10:26:42;;;;;;;53.35;28.17;;;12.00;95.90;;;;;;5047475;28;20032;-68
2022/11/20 10:29:24;;;;;;;53.05;29.60;;;12.10;95.80;;;;;;5047758;28;20029;-69
2022/11/20 10:31:56;;;;;;;45.33;28.55;;;12.00;95.90;;;;;;5046652;28;20017;-68
2022/11/20 10:34:46;;;;;;;41.83;26.30;;;12.00;95.80;;;;;;5042725;28;20037;-68
2022/11/20 10:37:18;;;;;;;50.55;28.15;;;12.20;95.90;;;;;;5049533;28;20756;-68
2022/11/20 10:40:24;;;;;;;45.17;30.13;;;12.40;95.50;;;;;;5050982;28;20073;-68
2022/11/20 10:42:59;;;;;;;49.83;27.73;;;12.30;95.80;;;;;;5048297;28;20283;-69
2022/11/20 10:45:24;;;;;;;41.47;27.48;;;12.40;95.70;;;;;;5050408;28;20033;-67
2022/11/20 10:48:35;;;;;;;46.40;27.55;;;12.30;95.80;;;;;;5049651;28;20075;-68
2022/11/20 10:51:38;;;;;;;47.72;26.45;;;12.30;95.90;;;;;;5046083;28;20037;-67
2022/11/20 10:54:19;;;;;;;45.40;27.42;;;12.40;95.90;;;;;;5051354;28;20121;-68
2022/11/20 10:56:51;;;;;;;39.75;25.42;;;12.30;95.90;;;;;;5050468;28;20086;-68
2022/11/20 10:59:49;;;;;;;40.72;25.20;;;12.20;95.80;;;;;;5050445;28;20575;-69
2022/11/20 11:02:20;;;;;;;40.33;25.42;;;12.30;95.90;;;;;;5049225;28;20056;-68
2022/11/20 11:04:48;;;;;;;40.85;23.80;;;12.20;96.00;;;;;;5051108;28;20033;-68
2022/11/20 11:07:21;;;;;;;58.28;39.85;;;12.20;96.20;;;;;;5050505;28;20032;-68
2022/11/20 11:09:50;;;;;;;42.92;28.23;;;12.20;96.30;;;;;;5050269;28;20100;-68
2022/11/20 11:12:16;;;;;;;36.30;23.75;;;12.30;96.30;;;;;;5049095;28;20048;-69
2022/11/20 11:14:44;;;;;;;35.72;22.58;;;12.20;96.30;;;;;;5048687;28;21740;-69
2022/11/20 11:17:26;;;;;;;35.05;20.08;;;12.30;96.30;;;;;;5049376;28;20029;-69
2022/11/20 11:19:58;;;;;;;31.38;19.77;;;12.50;96.30;;;;;;5049651;28;20032;-70
2022/11/20 11:22:23;;;;;;;35.47;20.90;;;12.60;96.20;;;;;;5048687;28;20443;-70
2022/11/20 11:24:53;;;;;;;32.75;20.05;;;12.50;96.30;;;;;;5046071;28;20295;-69
2022/11/20 11:27:18;;;;;;;28.73;18.88;;;12.60;96.20;;;;;;5048719;28;20039;-69
2022/11/20 11:29:45;;;;;;;31.75;18.80;;;12.70;96.20;;;;;;5049809;28;20474;-72
2022/11/20 11:32:18;;;;;;;30.08;17.65;;;12.60;96.30;;;;;;5048821;28;20028;-70
2022/11/20 11:34:44;;;;;;;29.40;17.42;;;12.70;96.20;;;;;;5047737;28;20041;-71
2022/11/20 11:37:34;;;;;;;26.15;16.20;;;12.60;96.40;;;;;;5049866;28;20094;-71
2022/11/20 11:40:00;;;;;;;27.83;16.63;;;12.60;96.60;;;;;;5045888;28;20106;-71
2022/11/20 11:42:28;;;;;;;26.50;15.48;;;12.60;96.80;;;;;;5045479;28;20032;-71
2022/11/20 11:45:06;;;;;;;25.65;13.73;;;12.70;97.00;;;;;;5047848;28;20417;-71
2022/11/20 11:47:36;;;;;;;20.30;14.98;;;12.80;96.90;;;;;;5048713;28;20035;-71
2022/11/20 11:50:22;;;;;;;23.75;13.40;;;13.00;97.20;;;;;;5042245;28;20087;-70
2022/11/20 11:52:51;;;;;;;19.98;12.35;;;13.10;97.00;;;;;;5047323;28;20442;-72
2022/11/20 11:55:42;;;;;;;17.02;11.27;;;13.20;97.10;;;;;;5047961;28;20487;-72
2022/11/20 11:58:28;;;;;;;17.43;11.20;;;13.10;97.60;;;;;;5048703;28;20020;-71
2022/11/20 12:01:00;;;;;;;17.20;9.98;;;13.20;98.00;;;;;;5046954;28;20388;-71
2022/11/20 12:03:35;;;;;;;16.02;9.73;;;13.30;98.20;;;;;;5048221;28;20053;-71
2022/11/20 12:06:08;;;;;;;13.93;8.65;;;13.30;98.50;;;;;;5048316;28;20021;-71
2022/11/20 12:08:53;;;;;;;15.95;9.35;;;13.40;98.40;;;;;;5047350;28;20021;-72
2022/11/20 12:11:43;;;;;;;17.17;8.35;;;13.50;98.70;;;;;;5046326;28;20017;-70
2022/11/20 12:14:23;;;;;;;17.00;8.77;;;13.60;98.70;;;;;;5047508;28;20021;-71
2022/11/20 12:16:50;;;;;;;17.23;7.97;;;13.70;98.70;;;;;;5048567;28;20493;-71
2022/11/20 12:19:16;;;;;;;12.88;6.15;;;13.80;98.50;;;;;;5047944;28;20502;-71
2022/11/20 12:21:59;;;;;;;12.00;6.32;;;13.70;98.60;;;;;;5045837;28;20040;-71
2022/11/20 12:24:44;;;;;;;9.68;5.28;;;13.80;98.30;;;;;;5048759;28;20020;-70
2022/11/20 12:27:13;;;;;;;12.45;5.10;;;13.90;98.30;;;;;;5048067;28;20055;-69
2022/11/20 12:30:10;;;;;;;8.68;4.85;;;13.90;98.10;;;;;;5048331;28;20094;-69
2022/11/20 12:33:13;;;;;;;8.73;4.82;;;13.90;97.90;;;;;;5047629;28;20031;-70
2022/11/20 12:35:57;;;;;;;11.60;5.43;;;13.90;97.80;;;;;;5047116;28;20124;-69
2022/11/20 12:38:55;;;;;;;10.73;4.30;;;13.90;97.60;;;;;;5048022;28;20082;-69
2022/11/20 12:47:52;;;;;;;7.93;3.80;;;14.00;97.00;;;;;;5045431;28;20402;-69
2022/11/20 12:50:38;;;;;;;7.55;3.60;;;14.10;97.00;;;;;;5047133;28;20036;-70
2022/11/20 12:53:14;;;;;;;6.78;3.40;;;14.10;96.80;;;;;;5035799;28;20049;-69
2022/11/20 12:55:58;;;;;;;6.30;3.30;;;14.10;96.70;;;;;;5048229;28;20037;-70